createdAt,value
2018-06-18T00:00:06.464Z,80.00
2018-06-18T00:02:34.229Z,79.80
2018-06-18T00:05:01.999Z,80.10
2018-06-18T00:07:29.813Z,80.00
2018-06-18T00:09:57.569Z,80.20
2018-06-18T00:12:25.367Z,80.30
2018-06-18T00:14:53.107Z,80.30
2018-06-18T00:17:20.889Z,79.70
2018-06-18T00:19:48.673Z,79.50
2018-06-18T00:22:16.905Z,80.20
2018-06-18T00:24:45.469Z,80.00
2018-06-18T00:27:13.441Z,80.00
2018-06-18T00:29:41.177Z,80.20
2018-06-18T00:32:09.227Z,80.10
2018-06-18T00:34:37.017Z,80.00
2018-06-18T00:37:05.064Z,79.50
2018-06-18T00:39:32.800Z,79.70
2018-06-18T00:42:00.570Z,80.70
2018-06-18T00:44:28.377Z,80.10
2018-06-18T00:46:56.128Z,80.20
2018-06-18T00:49:23.893Z,80.60
2018-06-18T00:51:51.972Z,80.80
2018-06-18T00:54:19.767Z,80.90
2018-06-18T00:56:47.517Z,80.70
2018-06-18T00:59:15.280Z,81.00
2018-06-18T01:01:43.069Z,81.00
2018-06-18T01:04:11.102Z,80.80
2018-06-18T01:06:38.865Z,80.60
2018-06-18T01:09:08.953Z,80.80
2018-06-18T01:14:04.369Z,81.10
2018-06-18T01:16:32.117Z,81.10
2018-06-18T01:18:59.909Z,81.00
2018-06-18T01:21:27.673Z,80.80
2018-06-18T01:24:05.785Z,81.00
2018-06-18T01:26:33.546Z,80.80
2018-06-18T01:29:01.301Z,81.00
2018-06-18T01:31:29.085Z,81.60
2018-06-18T01:33:59.149Z,81.50
2018-06-18T01:36:26.921Z,81.70
2018-06-18T01:38:54.712Z,81.80
2018-06-18T01:43:50.131Z,82.50
2018-06-18T01:46:17.917Z,82.80
2018-06-18T01:48:45.681Z,83.00
2018-06-18T01:51:13.457Z,82.80
2018-06-18T01:53:41.237Z,82.80
2018-06-18T01:56:09.009Z,82.40
2018-06-18T01:58:36.789Z,82.40
2018-06-18T02:01:04.573Z,82.50
2018-06-18T02:03:32.349Z,83.00
2018-06-18T02:06:00.192Z,82.80
2018-06-18T02:08:27.983Z,82.90
2018-06-18T02:10:55.753Z,82.50
2018-06-18T02:13:23.532Z,82.70
2018-06-18T02:15:51.329Z,82.50
2018-06-18T02:18:19.156Z,82.90
2018-06-18T02:20:46.998Z,81.90
2018-06-18T02:23:14.792Z,82.10
2018-06-18T02:25:42.597Z,81.80
2018-06-18T02:28:15.996Z,82.20
2018-06-18T02:30:49.318Z,82.10
2018-06-18T02:33:22.648Z,82.50
2018-06-18T02:35:56.001Z,82.50
2018-06-18T02:38:29.428Z,82.50
2018-06-18T02:40:57.212Z,82.30
2018-06-18T02:43:25.004Z,82.30
2018-06-18T02:45:52.829Z,82.80
2018-06-18T02:48:20.598Z,83.10
2018-06-18T02:50:49.433Z,82.90
2018-06-18T02:53:17.315Z,83.60
2018-06-18T02:55:46.889Z,84.30
2018-06-18T02:58:14.685Z,84.20
2018-06-18T03:00:42.449Z,83.40
2018-06-18T03:03:10.223Z,83.20
2018-06-18T03:05:38.017Z,81.20
2018-06-18T03:08:05.777Z,81.30
2018-06-18T03:10:33.765Z,80.80
2018-06-18T03:13:01.545Z,81.00
2018-06-18T03:15:29.292Z,81.30
2018-06-18T03:17:57.114Z,81.10
2018-06-18T03:20:30.538Z,81.50
2018-06-18T03:23:03.897Z,82.10
2018-06-18T03:25:37.196Z,82.40
2018-06-18T03:28:10.804Z,82.20
2018-06-18T03:30:38.677Z,82.20
2018-06-18T03:33:06.444Z,83.40
2018-06-18T03:35:34.233Z,84.40
2018-06-18T03:38:02.340Z,84.50
2018-06-18T03:40:30.409Z,84.60
2018-06-18T03:42:58.189Z,85.10
2018-06-18T03:45:28.276Z,84.40
2018-06-18T03:47:57.999Z,83.70
2018-06-18T03:50:25.812Z,83.70
2018-06-18T03:52:53.597Z,84.10
2018-06-18T03:57:50.629Z,84.30
2018-06-18T04:00:18.645Z,83.80
2018-06-18T04:02:57.156Z,84.20
2018-06-18T04:05:30.412Z,84.60
2018-06-18T04:08:00.352Z,85.00
2018-06-18T04:10:36.996Z,85.00
2018-06-18T04:13:04.840Z,85.00
2018-06-18T04:15:32.610Z,84.80
2018-06-18T04:18:00.389Z,85.00
2018-06-18T04:20:31.048Z,84.60
2018-06-18T04:22:59.346Z,85.00
2018-06-18T04:25:27.113Z,85.10
2018-06-18T04:27:54.891Z,85.40
2018-06-18T04:30:22.723Z,84.90
2018-06-18T04:32:50.533Z,85.40
2018-06-18T04:35:18.286Z,85.50
2018-06-18T04:37:46.153Z,85.40
2018-06-18T04:40:13.869Z,86.00
2018-06-18T04:42:47.277Z,86.30
2018-06-18T04:47:53.629Z,86.50
2018-06-18T04:50:27.077Z,86.00
2018-06-18T04:52:54.828Z,85.50
2018-06-18T04:55:22.589Z,85.80
2018-06-18T04:57:50.378Z,84.50
2018-06-18T05:00:29.342Z,84.20
2018-06-18T05:02:57.087Z,84.40
2018-06-18T05:05:24.877Z,84.50
2018-06-18T05:07:56.968Z,84.00
2018-06-18T05:10:26.609Z,83.40
2018-06-18T05:12:54.617Z,83.20
2018-06-18T05:15:25.358Z,83.00
2018-06-18T05:17:53.144Z,82.30
2018-06-18T05:20:20.937Z,81.70
2018-06-18T05:25:16.650Z,82.10
2018-06-18T05:27:44.438Z,82.20
2018-06-18T05:30:16.554Z,81.90
2018-06-18T05:32:44.322Z,81.60
2018-06-18T05:35:12.653Z,81.70
2018-06-18T05:37:46.605Z,81.70
2018-06-18T05:40:14.391Z,82.60
2018-06-18T05:42:42.133Z,82.00
2018-06-18T05:45:10.045Z,81.90
2018-06-18T05:47:38.228Z,82.10
2018-06-18T05:50:06.038Z,82.30
2018-06-18T05:52:33.829Z,81.70
2018-06-18T05:55:01.810Z,81.50
2018-06-18T05:57:29.697Z,81.40
2018-06-18T05:59:57.452Z,81.60
2018-06-18T06:04:52.872Z,81.10
2018-06-18T06:07:20.618Z,81.10
2018-06-18T06:09:48.422Z,81.60
2018-06-18T06:12:16.188Z,81.80
2018-06-18T06:14:43.974Z,81.80
2018-06-18T06:17:12.321Z,82.10
2018-06-18T06:19:40.101Z,82.20
2018-06-18T06:22:07.866Z,81.60
2018-06-18T06:24:35.617Z,81.10
2018-06-18T06:27:03.815Z,81.20
2018-06-18T06:29:31.632Z,81.90
2018-06-18T06:31:59.646Z,82.20
2018-06-18T06:34:27.389Z,82.60
2018-06-18T06:41:54.926Z,82.80
2018-06-18T06:44:22.777Z,82.50
2018-06-18T06:46:50.570Z,82.00
2018-06-18T06:49:18.358Z,82.20
2018-06-18T06:51:46.186Z,82.00
2018-06-18T06:54:13.952Z,82.20
2018-06-18T06:56:41.703Z,82.30
2018-06-18T06:59:09.489Z,82.50
2018-06-18T07:01:37.256Z,80.80
2018-06-18T07:04:05.398Z,79.50
2018-06-18T07:06:33.182Z,79.80
2018-06-18T07:09:00.950Z,80.00
2018-06-18T07:11:28.749Z,78.90
2018-06-18T07:13:56.512Z,78.20
2018-06-18T07:16:24.281Z,78.70
2018-06-18T07:21:19.697Z,76.70
2018-06-18T07:23:47.445Z,75.70
2018-06-18T07:26:15.205Z,76.10
2018-06-18T07:28:42.976Z,76.40
2018-06-18T07:31:10.762Z,76.90
2018-06-18T07:33:38.524Z,76.60
2018-06-18T07:36:06.328Z,75.00
2018-06-18T07:38:34.115Z,74.90
2018-06-18T07:41:01.909Z,74.50
2018-06-18T07:43:29.682Z,75.40
2018-06-18T07:45:57.412Z,75.10
2018-06-18T07:48:25.205Z,70.80
2018-06-18T07:50:52.985Z,68.40
2018-06-18T07:53:22.691Z,66.60
2018-06-18T07:55:50.468Z,64.40
2018-06-18T07:58:18.229Z,65.40
2018-06-18T08:00:45.996Z,65.60
2018-06-18T08:03:13.761Z,67.50
2018-06-18T08:05:41.493Z,67.20
2018-06-18T08:08:09.237Z,62.20
2018-06-18T08:10:37.032Z,60.00
2018-06-18T08:13:04.782Z,60.30
2018-06-18T08:15:32.544Z,58.80
2018-06-18T08:18:00.333Z,58.70
2018-06-18T08:20:28.109Z,57.20
2018-06-18T08:22:55.845Z,55.30
2018-06-18T08:25:23.617Z,56.50
2018-06-18T08:27:51.381Z,56.30
2018-06-18T08:30:19.162Z,56.30
2018-06-18T08:32:46.930Z,54.70
2018-06-18T08:35:14.714Z,54.30
2018-06-18T08:37:42.476Z,54.50
2018-06-18T08:40:10.242Z,55.00
2018-06-18T08:42:38.013Z,55.20
2018-06-18T08:45:05.841Z,55.50
2018-06-18T08:47:33.574Z,55.50
2018-06-18T08:50:06.848Z,56.40
2018-06-18T08:52:40.158Z,56.00
2018-06-18T08:55:13.513Z,55.70
2018-06-18T08:57:46.749Z,56.30
2018-06-18T09:00:20.213Z,56.80
2018-06-18T09:05:20.688Z,57.50
2018-06-18T09:07:53.393Z,57.20
2018-06-18T09:10:21.351Z,56.70
2018-06-18T09:12:49.157Z,56.60
2018-06-18T09:17:44.597Z,54.30
2018-06-18T09:20:12.317Z,54.70
2018-06-18T09:22:40.073Z,53.70
2018-06-18T09:25:07.857Z,54.70
2018-06-18T09:27:35.598Z,54.90
2018-06-18T09:30:10.069Z,56.20
2018-06-18T09:32:38.081Z,56.00
2018-06-18T09:37:33.500Z,57.00
2018-06-18T09:40:01.633Z,55.60
2018-06-18T09:44:57.053Z,54.50
2018-06-18T09:47:24.815Z,52.90
2018-06-18T09:49:58.104Z,52.60
2018-06-18T09:52:31.377Z,53.00
2018-06-18T09:57:11.241Z,52.70
2018-06-18T09:59:44.702Z,53.70
2018-06-18T10:02:12.463Z,48.30
2018-06-18T10:04:41.093Z,47.90
2018-06-18T10:07:08.848Z,46.70
2018-06-18T10:09:36.608Z,46.40
2018-06-18T10:12:04.387Z,46.50
2018-06-18T10:14:32.179Z,46.50
2018-06-18T10:19:27.616Z,45.00
2018-06-18T10:21:55.352Z,44.30
2018-06-18T10:24:23.179Z,42.50
2018-06-18T10:26:50.942Z,42.80
2018-06-18T10:29:18.677Z,41.80
2018-06-18T10:31:46.445Z,41.30
2018-06-18T10:34:19.767Z,41.70
2018-06-18T10:36:53.089Z,40.60
2018-06-18T10:39:26.841Z,40.10
2018-06-18T10:42:00.308Z,40.90
2018-06-18T10:44:28.058Z,39.90
2018-06-18T10:46:55.824Z,40.10
2018-06-18T10:49:23.576Z,40.60
2018-06-18T10:51:51.325Z,42.20
2018-06-18T10:54:19.116Z,42.50
2018-06-18T10:56:46.891Z,40.70
2018-06-18T10:59:14.650Z,38.90
2018-06-18T11:01:42.645Z,37.60
2018-06-18T11:04:15.925Z,38.10
2018-06-18T11:06:43.701Z,37.90
2018-06-18T11:09:11.653Z,37.80
2018-06-18T11:11:39.445Z,38.50
2018-06-18T11:14:07.205Z,39.30
2018-06-18T11:16:35.138Z,41.50
2018-06-18T11:19:08.203Z,40.30
2018-06-18T11:21:41.476Z,39.10
2018-06-18T11:24:14.679Z,38.40
2018-06-18T11:26:47.929Z,38.70
2018-06-18T11:29:15.655Z,37.90
2018-06-18T11:31:43.461Z,37.90
2018-06-18T11:34:11.212Z,36.70
2018-06-18T11:36:39.029Z,39.80
2018-06-18T11:39:08.027Z,41.20
2018-06-18T11:41:35.787Z,39.10
2018-06-18T11:44:03.832Z,37.00
2018-06-18T11:46:31.608Z,36.40
2018-06-18T11:48:59.349Z,37.70
2018-06-18T11:51:27.126Z,37.70
2018-06-18T11:53:54.901Z,38.30
2018-06-18T11:56:22.657Z,37.60
2018-06-18T11:58:55.985Z,36.60
2018-06-18T12:01:29.491Z,39.90
2018-06-18T12:04:02.913Z,39.90
2018-06-18T12:06:36.300Z,39.60
2018-06-18T12:09:12.324Z,39.90
2018-06-18T12:11:40.313Z,40.00
2018-06-18T12:14:08.081Z,40.50
2018-06-18T12:16:36.630Z,40.50
2018-06-18T12:19:05.112Z,38.30
2018-06-18T12:21:33.181Z,40.60
2018-06-18T12:24:00.970Z,40.80
2018-06-18T12:26:29.172Z,38.90
2018-06-18T12:28:56.954Z,38.50
2018-06-18T12:31:24.713Z,39.30
2018-06-18T12:33:52.671Z,39.10
2018-06-18T12:36:20.521Z,41.30
2018-06-18T12:38:48.246Z,40.50
2018-06-18T12:43:47.337Z,43.70
2018-06-18T12:46:20.585Z,42.70
2018-06-18T12:48:54.928Z,43.00
2018-06-18T12:51:28.157Z,44.10
2018-06-18T12:54:01.429Z,40.30
2018-06-18T12:56:34.689Z,41.70
2018-06-18T12:59:02.500Z,44.40
2018-06-18T13:01:32.584Z,43.00
2018-06-18T13:04:01.864Z,43.30
2018-06-18T13:06:29.644Z,43.50
2018-06-18T13:08:57.404Z,41.80
2018-06-18T13:11:25.177Z,42.80
2018-06-18T13:13:52.937Z,42.00
2018-06-18T13:16:21.285Z,41.40
2018-06-18T13:18:49.094Z,44.80
2018-06-18T13:21:16.893Z,43.80
2018-06-18T13:23:44.648Z,43.40
2018-06-18T13:26:12.421Z,42.80
2018-06-18T13:28:40.189Z,43.40
2018-06-18T13:31:08.041Z,46.10
2018-06-18T13:33:35.813Z,45.50
2018-06-18T13:36:03.641Z,43.80
2018-06-18T13:38:37.002Z,45.30
2018-06-18T13:41:10.437Z,44.20
2018-06-18T13:43:43.694Z,45.60
2018-06-18T13:46:16.925Z,42.90
2018-06-18T13:48:59.444Z,44.70
2018-06-18T13:51:27.641Z,42.40
2018-06-18T13:53:55.437Z,40.90
2018-06-18T13:56:23.516Z,39.00
2018-06-18T13:58:51.704Z,39.90
2018-06-18T14:01:19.453Z,39.90
2018-06-18T14:03:47.220Z,40.50
2018-06-18T14:06:14.998Z,40.50
2018-06-18T14:08:42.781Z,40.40
2018-06-18T14:11:10.581Z,38.60
2018-06-18T14:13:38.368Z,36.30
2018-06-18T14:16:06.156Z,37.00
2018-06-18T14:18:33.979Z,40.50
2018-06-18T14:21:01.770Z,39.10
2018-06-18T14:23:29.562Z,39.10
2018-06-18T14:25:57.420Z,39.30
2018-06-18T14:28:25.204Z,41.40
2018-06-18T14:30:58.489Z,38.00
2018-06-18T14:33:31.733Z,38.10
2018-06-18T14:36:05.023Z,39.70
2018-06-18T14:41:06.372Z,38.60
2018-06-18T14:43:34.173Z,37.90
2018-06-18T14:48:29.690Z,38.30
2018-06-18T14:50:57.409Z,38.30
2018-06-18T14:53:25.197Z,38.60
2018-06-18T14:56:05.665Z,39.80
2018-06-18T15:01:01.029Z,39.80
2018-06-18T15:03:28.820Z,37.00
2018-06-18T15:05:56.597Z,37.60
2018-06-18T15:08:24.428Z,39.00
2018-06-18T15:13:21.128Z,39.40
2018-06-18T15:15:54.502Z,39.20
2018-06-18T15:18:22.256Z,39.30
2018-06-18T15:20:50.569Z,37.90
2018-06-18T15:23:18.345Z,38.30
2018-06-18T15:25:48.058Z,38.10
2018-06-18T15:28:15.841Z,36.60
2018-06-18T15:30:43.593Z,37.70
2018-06-18T15:33:11.365Z,37.20
2018-06-18T15:35:39.123Z,35.70
2018-06-18T15:38:06.920Z,35.90
2018-06-18T15:40:34.725Z,37.20
2018-06-18T15:43:02.485Z,39.40
2018-06-18T15:45:30.327Z,37.60
2018-06-18T15:47:58.136Z,37.40
2018-06-18T15:50:25.938Z,36.70
2018-06-18T15:55:21.357Z,37.70
2018-06-18T15:57:49.097Z,38.70
2018-06-18T16:00:16.936Z,37.10
2018-06-18T16:02:44.796Z,37.00
2018-06-18T16:05:12.580Z,37.30
2018-06-18T16:07:40.352Z,36.30
2018-06-18T16:10:08.117Z,37.00
2018-06-18T16:12:35.900Z,37.50
2018-06-18T16:15:03.722Z,37.90
2018-06-18T16:17:31.476Z,37.10
2018-06-18T16:19:59.253Z,38.20
2018-06-18T16:22:27.016Z,39.10
2018-06-18T16:24:54.768Z,39.20
2018-06-18T16:27:22.540Z,39.60
2018-06-18T16:29:50.333Z,37.90
2018-06-18T16:32:18.133Z,37.50
2018-06-18T16:34:45.881Z,37.50
2018-06-18T16:37:13.717Z,37.20
2018-06-18T16:39:41.503Z,38.20
2018-06-18T16:42:09.272Z,38.40
2018-06-18T16:47:04.749Z,39.50
2018-06-18T16:49:32.511Z,38.20
2018-06-18T16:52:00.292Z,39.40
2018-06-18T16:54:28.055Z,39.10
2018-06-18T16:56:55.900Z,39.70
2018-06-18T16:59:23.659Z,40.20
2018-06-18T17:01:51.413Z,39.50
2018-06-18T17:06:46.932Z,38.70
2018-06-18T17:11:42.511Z,39.90
2018-06-18T17:14:10.262Z,39.30
2018-06-18T17:16:38.073Z,40.00
2018-06-18T17:19:05.840Z,39.80
2018-06-18T17:21:33.636Z,39.00
2018-06-18T17:24:01.441Z,38.10
2018-06-18T17:26:29.221Z,38.40
2018-06-18T17:28:56.988Z,38.80
2018-06-18T17:31:24.925Z,40.00
2018-06-18T17:33:52.708Z,39.80
2018-06-18T17:36:20.480Z,39.50
2018-06-18T17:38:48.257Z,40.00
2018-06-18T17:41:16.031Z,40.20
2018-06-18T17:43:43.785Z,39.90
2018-06-18T17:46:11.560Z,40.50
2018-06-18T17:48:39.320Z,40.90
2018-06-18T17:51:07.080Z,40.90
2018-06-18T17:53:34.840Z,41.60
2018-06-18T17:56:02.642Z,41.00
2018-06-18T17:58:30.412Z,41.50
2018-06-18T18:00:58.161Z,41.60
2018-06-18T18:03:25.969Z,41.70
2018-06-18T18:05:53.756Z,41.50
2018-06-18T18:08:21.537Z,41.50
2018-06-18T18:10:49.370Z,40.90
2018-06-18T18:13:17.303Z,41.30
2018-06-18T18:15:45.029Z,41.70
2018-06-18T18:18:12.804Z,41.00
2018-06-18T18:20:40.681Z,41.40
2018-06-18T18:23:08.437Z,42.00
2018-06-18T18:25:36.204Z,41.70
2018-06-18T18:28:04.100Z,42.00
2018-06-18T18:30:31.868Z,43.40
2018-06-18T18:32:59.701Z,42.70
2018-06-18T18:35:27.538Z,43.10
2018-06-18T18:37:55.695Z,43.30
2018-06-18T18:40:23.501Z,43.10
2018-06-18T18:42:51.305Z,43.20
2018-06-18T18:45:19.058Z,43.40
2018-06-18T18:47:46.855Z,44.40
2018-06-18T19:04:42.593Z,47.40
2018-06-18T19:07:10.441Z,48.40
2018-06-18T19:09:45.546Z,49.40
2018-06-18T19:12:13.721Z,49.40
2018-06-18T19:17:09.529Z,49.70
2018-06-18T19:19:42.400Z,49.80
2018-06-18T19:22:10.981Z,50.40
2018-06-18T19:24:38.756Z,51.00
2018-06-18T19:27:06.710Z,51.40
2018-06-18T19:29:34.470Z,52.00
2018-06-18T19:32:02.264Z,52.40
2018-06-18T19:34:30.265Z,52.40
2018-06-18T19:39:30.289Z,52.90
2018-06-18T19:41:58.040Z,52.90
2018-06-18T19:44:25.921Z,53.30
2018-06-18T19:47:15.252Z,53.50
2018-06-18T19:49:43.073Z,53.90
2018-06-18T19:52:29.105Z,53.90
2018-06-18T19:57:49.982Z,53.90
2018-06-18T20:00:17.845Z,55.10
2018-06-18T20:02:45.621Z,55.10
2018-06-18T20:05:14.113Z,55.10
2018-06-18T20:39:12.925Z,58.00
2018-06-18T20:41:41.911Z,58.00
2018-06-18T20:44:14.241Z,58.10
2018-06-18T20:46:54.246Z,58.10
2018-06-18T20:49:22.252Z,57.80
2018-06-18T20:51:50.026Z,58.00
2018-06-18T20:57:20.397Z,58.10
2018-06-18T20:59:48.160Z,58.20
2018-06-18T21:17:00.360Z,57.40
2018-06-18T21:19:28.157Z,57.80
2018-06-18T21:21:55.978Z,58.00
2018-06-18T21:24:23.787Z,58.60
2018-06-18T21:26:51.596Z,57.50
2018-06-18T21:29:19.369Z,58.00
2018-06-18T21:31:47.369Z,58.20
2018-06-18T21:34:15.146Z,58.00
2018-06-18T21:36:42.933Z,57.90
2018-06-18T21:39:11.404Z,57.70
2018-06-18T21:41:39.350Z,57.90
2018-06-18T21:46:36.585Z,57.90
2018-06-18T21:49:04.441Z,58.30
2018-06-18T21:51:32.232Z,58.10
2018-06-18T21:56:27.717Z,57.40
2018-06-18T21:58:55.541Z,57.40
2018-06-18T22:01:34.605Z,57.60
2018-06-18T22:04:02.394Z,58.20
2018-06-18T22:06:30.209Z,58.20
2018-06-18T22:08:58.017Z,58.50
2018-06-18T22:11:26.060Z,58.30
2018-06-18T22:13:53.841Z,58.10
2018-06-18T22:16:21.633Z,58.10
2018-06-18T22:18:49.467Z,58.40
2018-06-18T22:21:17.275Z,58.00
2018-06-18T22:23:45.109Z,57.60
2018-06-18T22:26:13.028Z,57.70
2018-06-18T22:28:42.891Z,58.10
2018-06-18T22:31:10.906Z,58.20
2018-06-18T22:33:38.725Z,58.50
2018-06-18T22:36:06.536Z,58.80
2018-06-18T22:38:34.349Z,58.70
2018-06-18T22:41:02.157Z,58.80
2018-06-18T22:43:30.019Z,59.60
2018-06-18T22:45:57.799Z,60.20
2018-06-18T22:50:53.262Z,60.20
2018-06-18T22:53:21.058Z,59.90
2018-06-18T22:55:48.905Z,59.80
2018-06-18T22:58:16.694Z,60.20
2018-06-18T23:00:44.469Z,60.50
2018-06-18T23:03:12.333Z,60.30
2018-06-18T23:05:40.197Z,60.20
2018-06-18T23:08:07.984Z,60.30
2018-06-18T23:13:03.445Z,61.10
2018-06-18T23:15:31.411Z,61.40
2018-06-18T23:17:59.241Z,61.50
2018-06-18T23:20:27.058Z,61.60
2018-06-18T23:22:54.885Z,61.70
2018-06-18T23:27:50.572Z,62.00
2018-06-18T23:30:18.438Z,61.80
2018-06-18T23:32:46.242Z,61.70
2018-06-18T23:37:41.669Z,62.20
2018-06-18T23:40:09.485Z,62.70
2018-06-18T23:42:37.297Z,62.00
2018-06-18T23:45:05.552Z,62.50
2018-06-18T23:47:33.389Z,61.60
2018-06-18T23:50:01.173Z,62.40
2018-06-18T23:52:29.052Z,62.50
2018-06-18T23:54:56.820Z,62.50
2018-06-18T23:57:24.570Z,62.70
2018-06-18T23:59:52.336Z,62.70
